sensor_id;sensor_type;location;lat;lon;timestamp;P1;durP1;ratioP1;P2;durP2;ratioP2
5458;SDS011;2752;49.992;8.422;2022-07-06T00:01:44;5.73;;;3.20;;
5458;SDS011;2752;49.992;8.422;2022-07-06T00:04:11;11.73;;;3.87;;
5458;SDS011;2752;49.992;8.422;2022-07-06T00:06:38;7.97;;;2.93;;
5458;SDS011;2752;49.992;8.422;2022-07-06T00:09:06;5.60;;;3.20;;
5458;SDS011;2752;49.992;8.422;2022-07-06T00:11:33;7.17;;;2.67;;
5458;SDS011;2752;49.992;8.422;2022-07-06T00:14:00;5.03;;;3.47;;
5458;SDS011;2752;49.992;8.422;2022-07-06T00:16:27;9.83;;;3.03;;
5458;SDS011;2752;49.992;8.422;2022-07-06T00:18:55;7.07;;;2.80;;
5458;SDS011;2752;49.992;8.422;2022-07-06T00:21:22;8.00;;;3.10;;
5458;SDS011;2752;49.992;8.422;2022-07-06T00:23:50;8.23;;;2.70;;
5458;SDS011;2752;49.992;8.422;2022-07-06T00:26:17;9.80;;;3.20;;
5458;SDS011;2752;49.992;8.422;2022-07-06T00:28:45;3.83;;;2.70;;
5458;SDS011;2752;49.992;8.422;2022-07-06T00:31:12;7.27;;;2.77;;
5458;SDS011;2752;49.992;8.422;2022-07-06T00:33:39;9.30;;;2.43;;
5458;SDS011;2752;49.992;8.422;2022-07-06T00:36:07;5.43;;;2.20;;
5458;SDS011;2752;49.992;8.422;2022-07-06T00:38:34;4.33;;;2.40;;
5458;SDS011;2752;49.992;8.422;2022-07-06T00:41:01;3.83;;;2.20;;
5458;SDS011;2752;49.992;8.422;2022-07-06T00:43:28;8.43;;;3.00;;
5458;SDS011;2752;49.992;8.422;2022-07-06T00:45:55;6.33;;;2.57;;
5458;SDS011;2752;49.992;8.422;2022-07-06T00:48:22;4.27;;;2.23;;
5458;SDS011;2752;49.992;8.422;2022-07-06T00:50:49;2.67;;;2.20;;
5458;SDS011;2752;49.992;8.422;2022-07-06T00:53:17;5.47;;;2.30;;
5458;SDS011;2752;49.992;8.422;2022-07-06T00:55:45;4.73;;;2.00;;
5458;SDS011;2752;49.992;8.422;2022-07-06T00:58:12;5.30;;;2.37;;
5458;SDS011;2752;49.992;8.422;2022-07-06T01:00:39;5.17;;;2.27;;
5458;SDS011;2752;49.992;8.422;2022-07-06T01:03:09;27.83;;;3.80;;
5458;SDS011;2752;49.992;8.422;2022-07-06T01:05:36;3.93;;;2.60;;
5458;SDS011;2752;49.992;8.422;2022-07-06T01:08:04;5.60;;;2.73;;
5458;SDS011;2752;49.992;8.422;2022-07-06T01:10:32;8.23;;;2.80;;
5458;SDS011;2752;49.992;8.422;2022-07-06T01:12:59;5.07;;;2.50;;
5458;SDS011;2752;49.992;8.422;2022-07-06T01:15:26;5.80;;;2.97;;
5458;SDS011;2752;49.992;8.422;2022-07-06T01:17:53;4.60;;;2.17;;
5458;SDS011;2752;49.992;8.422;2022-07-06T01:20:22;2.27;;;1.87;;
5458;SDS011;2752;49.992;8.422;2022-07-06T01:22:52;7.77;;;2.57;;
5458;SDS011;2752;49.992;8.422;2022-07-06T01:25:20;6.43;;;2.37;;
5458;SDS011;2752;49.992;8.422;2022-07-06T01:27:47;3.13;;;1.93;;
5458;SDS011;2752;49.992;8.422;2022-07-06T01:30:15;6.07;;;2.30;;
5458;SDS011;2752;49.992;8.422;2022-07-06T01:32:42;4.83;;;2.40;;
5458;SDS011;2752;49.992;8.422;2022-07-06T01:35:10;6.97;;;2.40;;
5458;SDS011;2752;49.992;8.422;2022-07-06T01:37:39;8.20;;;2.87;;
5458;SDS011;2752;49.992;8.422;2022-07-06T01:40:06;2.67;;;1.73;;
5458;SDS011;2752;49.992;8.422;2022-07-06T01:42:34;6.00;;;2.63;;
5458;SDS011;2752;49.992;8.422;2022-07-06T01:45:01;5.63;;;2.83;;
5458;SDS011;2752;49.992;8.422;2022-07-06T01:47:29;9.70;;;2.60;;
5458;SDS011;2752;49.992;8.422;2022-07-06T01:49:57;8.77;;;2.33;;
5458;SDS011;2752;49.992;8.422;2022-07-06T01:52:25;6.57;;;1.90;;
5458;SDS011;2752;49.992;8.422;2022-07-06T01:54:53;2.40;;;2.20;;
5458;SDS011;2752;49.992;8.422;2022-07-06T01:57:20;4.37;;;2.37;;
5458;SDS011;2752;49.992;8.422;2022-07-06T01:59:47;6.63;;;2.30;;
5458;SDS011;2752;49.992;8.422;2022-07-06T02:02:14;5.10;;;2.53;;
5458;SDS011;2752;49.992;8.422;2022-07-06T02:04:42;4.80;;;2.20;;
5458;SDS011;2752;49.992;8.422;2022-07-06T02:07:09;5.93;;;2.27;;
5458;SDS011;2752;49.992;8.422;2022-07-06T02:09:36;5.23;;;2.33;;
5458;SDS011;2752;49.992;8.422;2022-07-06T02:12:05;5.00;;;2.00;;
5458;SDS011;2752;49.992;8.422;2022-07-06T02:14:32;5.77;;;2.90;;
5458;SDS011;2752;49.992;8.422;2022-07-06T02:16:59;5.90;;;2.33;;
5458;SDS011;2752;49.992;8.422;2022-07-06T02:19:26;2.27;;;1.80;;
5458;SDS011;2752;49.992;8.422;2022-07-06T02:21:53;3.90;;;2.00;;
5458;SDS011;2752;49.992;8.422;2022-07-06T02:24:20;10.33;;;2.57;;
5458;SDS011;2752;49.992;8.422;2022-07-06T02:26:47;4.07;;;2.10;;
5458;SDS011;2752;49.992;8.422;2022-07-06T02:29:15;3.23;;;2.30;;
5458;SDS011;2752;49.992;8.422;2022-07-06T02:31:42;3.47;;;2.00;;
5458;SDS011;2752;49.992;8.422;2022-07-06T02:34:09;4.57;;;2.70;;
5458;SDS011;2752;49.992;8.422;2022-07-06T02:36:36;4.23;;;2.50;;
5458;SDS011;2752;49.992;8.422;2022-07-06T02:39:03;4.40;;;2.10;;
5458;SDS011;2752;49.992;8.422;2022-07-06T02:41:30;4.40;;;2.00;;
5458;SDS011;2752;49.992;8.422;2022-07-06T02:43:57;4.03;;;2.43;;
5458;SDS011;2752;49.992;8.422;2022-07-06T02:46:25;4.10;;;1.80;;
5458;SDS011;2752;49.992;8.422;2022-07-06T02:48:52;4.43;;;2.80;;
5458;SDS011;2752;49.992;8.422;2022-07-06T02:51:19;2.73;;;2.13;;
5458;SDS011;2752;49.992;8.422;2022-07-06T02:53:48;9.23;;;2.43;;
5458;SDS011;2752;49.992;8.422;2022-07-06T02:56:15;5.57;;;2.20;;
5458;SDS011;2752;49.992;8.422;2022-07-06T02:58:42;4.73;;;2.43;;
5458;SDS011;2752;49.992;8.422;2022-07-06T03:01:09;3.40;;;1.93;;
5458;SDS011;2752;49.992;8.422;2022-07-06T03:03:38;4.57;;;2.37;;
5458;SDS011;2752;49.992;8.422;2022-07-06T03:06:05;3.50;;;2.10;;
5458;SDS011;2752;49.992;8.422;2022-07-06T03:08:32;5.83;;;2.47;;
5458;SDS011;2752;49.992;8.422;2022-07-06T03:10:59;8.50;;;2.20;;
5458;SDS011;2752;49.992;8.422;2022-07-06T03:13:26;3.47;;;2.30;;
5458;SDS011;2752;49.992;8.422;2022-07-06T03:15:54;5.27;;;2.03;;
5458;SDS011;2752;49.992;8.422;2022-07-06T03:18:21;3.80;;;1.80;;
5458;SDS011;2752;49.992;8.422;2022-07-06T03:20:49;3.93;;;2.10;;
5458;SDS011;2752;49.992;8.422;2022-07-06T03:23:16;2.47;;;2.13;;
5458;SDS011;2752;49.992;8.422;2022-07-06T03:25:43;6.67;;;2.30;;
5458;SDS011;2752;49.992;8.422;2022-07-06T03:28:10;4.17;;;2.20;;
5458;SDS011;2752;49.992;8.422;2022-07-06T03:30:37;5.40;;;2.07;;
5458;SDS011;2752;49.992;8.422;2022-07-06T03:33:04;8.57;;;2.40;;
5458;SDS011;2752;49.992;8.422;2022-07-06T03:35:31;4.80;;;2.40;;
5458;SDS011;2752;49.992;8.422;2022-07-06T03:37:59;3.63;;;2.80;;
5458;SDS011;2752;49.992;8.422;2022-07-06T03:40:27;5.40;;;2.30;;
5458;SDS011;2752;49.992;8.422;2022-07-06T03:42:54;7.30;;;3.03;;
5458;SDS011;2752;49.992;8.422;2022-07-06T03:45:21;3.70;;;2.50;;
5458;SDS011;2752;49.992;8.422;2022-07-06T03:47:48;4.40;;;2.00;;
5458;SDS011;2752;49.992;8.422;2022-07-06T03:50:15;7.53;;;2.20;;
5458;SDS011;2752;49.992;8.422;2022-07-06T03:52:42;4.17;;;2.40;;
5458;SDS011;2752;49.992;8.422;2022-07-06T03:55:11;7.73;;;3.30;;
5458;SDS011;2752;49.992;8.422;2022-07-06T03:57:38;7.50;;;2.63;;
5458;SDS011;2752;49.992;8.422;2022-07-06T04:00:06;4.50;;;2.27;;
5458;SDS011;2752;49.992;8.422;2022-07-06T04:02:33;8.30;;;2.90;;
5458;SDS011;2752;49.992;8.422;2022-07-06T04:05:00;11.73;;;2.50;;
5458;SDS011;2752;49.992;8.422;2022-07-06T04:07:27;7.83;;;2.97;;
5458;SDS011;2752;49.992;8.422;2022-07-06T04:09:55;3.43;;;2.23;;
5458;SDS011;2752;49.992;8.422;2022-07-06T04:12:23;5.70;;;2.50;;
5458;SDS011;2752;49.992;8.422;2022-07-06T04:14:50;7.63;;;2.70;;
5458;SDS011;2752;49.992;8.422;2022-07-06T04:17:17;9.10;;;2.70;;
5458;SDS011;2752;49.992;8.422;2022-07-06T04:20:13;3.87;;;2.57;;
5458;SDS011;2752;49.992;8.422;2022-07-06T04:22:40;4.17;;;2.70;;
5458;SDS011;2752;49.992;8.422;2022-07-06T04:25:07;9.43;;;3.40;;
5458;SDS011;2752;49.992;8.422;2022-07-06T04:27:36;5.40;;;2.77;;
5458;SDS011;2752;49.992;8.422;2022-07-06T04:30:03;4.50;;;2.50;;
5458;SDS011;2752;49.992;8.422;2022-07-06T04:32:31;6.50;;;3.57;;
5458;SDS011;2752;49.992;8.422;2022-07-06T04:34:58;4.80;;;2.93;;
5458;SDS011;2752;49.992;8.422;2022-07-06T04:37:25;6.40;;;3.37;;
5458;SDS011;2752;49.992;8.422;2022-07-06T04:39:52;7.23;;;4.30;;
5458;SDS011;2752;49.992;8.422;2022-07-06T04:42:19;8.67;;;3.23;;
5458;SDS011;2752;49.992;8.422;2022-07-06T04:44:47;18.67;;;3.40;;
5458;SDS011;2752;49.992;8.422;2022-07-06T04:47:17;10.47;;;3.43;;
5458;SDS011;2752;49.992;8.422;2022-07-06T04:49:45;14.70;;;3.23;;
5458;SDS011;2752;49.992;8.422;2022-07-06T04:52:12;15.60;;;3.47;;
5458;SDS011;2752;49.992;8.422;2022-07-06T04:54:39;11.50;;;4.20;;
5458;SDS011;2752;49.992;8.422;2022-07-06T04:57:06;9.40;;;4.20;;
5458;SDS011;2752;49.992;8.422;2022-07-06T04:59:33;11.77;;;3.57;;
5458;SDS011;2752;49.992;8.422;2022-07-06T05:02:01;8.20;;;3.23;;
5458;SDS011;2752;49.992;8.422;2022-07-06T05:04:28;6.57;;;3.60;;
5458;SDS011;2752;49.992;8.422;2022-07-06T05:06:55;8.73;;;3.40;;
5458;SDS011;2752;49.992;8.422;2022-07-06T05:09:22;10.23;;;4.10;;
5458;SDS011;2752;49.992;8.422;2022-07-06T05:11:49;8.10;;;3.07;;
5458;SDS011;2752;49.992;8.422;2022-07-06T05:14:16;5.77;;;2.60;;
5458;SDS011;2752;49.992;8.422;2022-07-06T05:16:43;6.33;;;3.37;;
5458;SDS011;2752;49.992;8.422;2022-07-06T05:19:12;8.70;;;3.00;;
5458;SDS011;2752;49.992;8.422;2022-07-06T05:21:39;5.23;;;3.27;;
5458;SDS011;2752;49.992;8.422;2022-07-06T05:24:06;6.23;;;3.00;;
5458;SDS011;2752;49.992;8.422;2022-07-06T05:26:33;5.37;;;3.13;;
5458;SDS011;2752;49.992;8.422;2022-07-06T05:29:00;8.90;;;3.07;;
5458;SDS011;2752;49.992;8.422;2022-07-06T05:31:27;12.70;;;3.80;;
5458;SDS011;2752;49.992;8.422;2022-07-06T05:33:54;10.03;;;3.87;;
5458;SDS011;2752;49.992;8.422;2022-07-06T05:36:22;9.57;;;3.57;;
5458;SDS011;2752;49.992;8.422;2022-07-06T05:38:49;5.60;;;2.90;;
5458;SDS011;2752;49.992;8.422;2022-07-06T05:41:16;5.53;;;2.93;;
5458;SDS011;2752;49.992;8.422;2022-07-06T05:43:43;10.43;;;3.37;;
5458;SDS011;2752;49.992;8.422;2022-07-06T05:46:10;5.50;;;3.50;;
5458;SDS011;2752;49.992;8.422;2022-07-06T05:48:37;10.40;;;3.30;;
5458;SDS011;2752;49.992;8.422;2022-07-06T05:51:24;8.03;;;3.13;;
5458;SDS011;2752;49.992;8.422;2022-07-06T05:53:51;7.20;;;4.33;;
5458;SDS011;2752;49.992;8.422;2022-07-06T05:56:18;9.83;;;4.07;;
5458;SDS011;2752;49.992;8.422;2022-07-06T05:58:45;13.27;;;4.50;;
5458;SDS011;2752;49.992;8.422;2022-07-06T06:01:12;7.27;;;3.70;;
5458;SDS011;2752;49.992;8.422;2022-07-06T06:03:39;8.83;;;4.90;;
5458;SDS011;2752;49.992;8.422;2022-07-06T06:06:06;7.90;;;4.23;;
5458;SDS011;2752;49.992;8.422;2022-07-06T06:08:34;12.53;;;4.00;;
5458;SDS011;2752;49.992;8.422;2022-07-06T06:11:01;14.37;;;3.83;;
5458;SDS011;2752;49.992;8.422;2022-07-06T06:13:28;7.70;;;3.40;;
5458;SDS011;2752;49.992;8.422;2022-07-06T06:15:55;7.43;;;4.07;;
5458;SDS011;2752;49.992;8.422;2022-07-06T06:18:22;9.17;;;3.33;;
5458;SDS011;2752;49.992;8.422;2022-07-06T06:20:49;11.53;;;3.87;;
5458;SDS011;2752;49.992;8.422;2022-07-06T06:23:16;7.33;;;3.60;;
5458;SDS011;2752;49.992;8.422;2022-07-06T06:25:45;7.83;;;3.73;;
5458;SDS011;2752;49.992;8.422;2022-07-06T06:28:12;4.27;;;2.87;;
5458;SDS011;2752;49.992;8.422;2022-07-06T06:30:39;7.83;;;2.97;;
5458;SDS011;2752;49.992;8.422;2022-07-06T06:33:07;8.67;;;3.43;;
5458;SDS011;2752;49.992;8.422;2022-07-06T06:35:34;10.90;;;3.50;;
5458;SDS011;2752;49.992;8.422;2022-07-06T06:38:01;4.77;;;3.00;;
5458;SDS011;2752;49.992;8.422;2022-07-06T06:40:28;5.40;;;2.83;;
5458;SDS011;2752;49.992;8.422;2022-07-06T06:42:56;6.40;;;2.77;;
5458;SDS011;2752;49.992;8.422;2022-07-06T06:45:24;9.30;;;2.90;;
5458;SDS011;2752;49.992;8.422;2022-07-06T06:47:51;6.13;;;3.30;;
5458;SDS011;2752;49.992;8.422;2022-07-06T06:50:18;6.53;;;3.30;;
5458;SDS011;2752;49.992;8.422;2022-07-06T06:52:45;8.40;;;2.93;;
5458;SDS011;2752;49.992;8.422;2022-07-06T06:55:12;10.90;;;3.07;;
5458;SDS011;2752;49.992;8.422;2022-07-06T06:57:39;8.53;;;3.20;;
5458;SDS011;2752;49.992;8.422;2022-07-06T07:00:08;7.40;;;3.27;;
5458;SDS011;2752;49.992;8.422;2022-07-06T07:02:35;11.60;;;3.63;;
5458;SDS011;2752;49.992;8.422;2022-07-06T07:05:04;8.23;;;3.13;;
5458;SDS011;2752;49.992;8.422;2022-07-06T07:07:31;8.83;;;3.00;;
5458;SDS011;2752;49.992;8.422;2022-07-06T07:09:58;9.50;;;2.93;;
5458;SDS011;2752;49.992;8.422;2022-07-06T07:12:25;4.43;;;3.03;;
5458;SDS011;2752;49.992;8.422;2022-07-06T07:14:52;15.53;;;2.70;;
5458;SDS011;2752;49.992;8.422;2022-07-06T07:17:20;7.80;;;3.40;;
5458;SDS011;2752;49.992;8.422;2022-07-06T07:19:47;4.57;;;2.63;;
5458;SDS011;2752;49.992;8.422;2022-07-06T07:22:14;17.70;;;3.50;;
5458;SDS011;2752;49.992;8.422;2022-07-06T07:24:41;7.80;;;3.37;;
5458;SDS011;2752;49.992;8.422;2022-07-06T07:27:08;4.60;;;2.63;;
5458;SDS011;2752;49.992;8.422;2022-07-06T07:29:35;3.73;;;2.23;;
5458;SDS011;2752;49.992;8.422;2022-07-06T07:32:03;8.53;;;3.50;;
5458;SDS011;2752;49.992;8.422;2022-07-06T07:34:31;8.60;;;2.53;;
5458;SDS011;2752;49.992;8.422;2022-07-06T07:36:58;6.60;;;2.97;;
5458;SDS011;2752;49.992;8.422;2022-07-06T07:39:25;13.93;;;3.70;;
5458;SDS011;2752;49.992;8.422;2022-07-06T07:41:52;3.53;;;2.90;;
5458;SDS011;2752;49.992;8.422;2022-07-06T07:44:19;5.70;;;2.70;;
5458;SDS011;2752;49.992;8.422;2022-07-06T07:46:46;15.20;;;3.73;;
5458;SDS011;2752;49.992;8.422;2022-07-06T07:49:13;7.33;;;3.07;;
5458;SDS011;2752;49.992;8.422;2022-07-06T07:51:41;3.63;;;2.77;;
5458;SDS011;2752;49.992;8.422;2022-07-06T07:54:08;6.70;;;2.50;;
5458;SDS011;2752;49.992;8.422;2022-07-06T07:56:35;7.43;;;3.30;;
5458;SDS011;2752;49.992;8.422;2022-07-06T07:59:05;8.33;;;2.90;;
5458;SDS011;2752;49.992;8.422;2022-07-06T08:01:32;7.03;;;2.43;;
5458;SDS011;2752;49.992;8.422;2022-07-06T08:03:59;9.00;;;3.17;;
5458;SDS011;2752;49.992;8.422;2022-07-06T08:06:26;5.60;;;3.20;;
5458;SDS011;2752;49.992;8.422;2022-07-06T08:08:55;7.80;;;3.20;;
5458;SDS011;2752;49.992;8.422;2022-07-06T08:11:22;5.73;;;3.00;;
5458;SDS011;2752;49.992;8.422;2022-07-06T08:13:49;12.80;;;5.10;;
5458;SDS011;2752;49.992;8.422;2022-07-06T08:16:16;9.37;;;2.93;;
5458;SDS011;2752;49.992;8.422;2022-07-06T08:18:43;3.40;;;2.13;;
5458;SDS011;2752;49.992;8.422;2022-07-06T08:21:10;8.30;;;2.90;;
5458;SDS011;2752;49.992;8.422;2022-07-06T08:23:37;10.73;;;3.07;;
5458;SDS011;2752;49.992;8.422;2022-07-06T08:26:05;11.00;;;3.13;;
5458;SDS011;2752;49.992;8.422;2022-07-06T08:28:32;5.50;;;2.50;;
5458;SDS011;2752;49.992;8.422;2022-07-06T08:30:59;5.27;;;2.37;;
5458;SDS011;2752;49.992;8.422;2022-07-06T08:33:26;3.37;;;1.93;;
5458;SDS011;2752;49.992;8.422;2022-07-06T08:35:53;3.10;;;2.40;;
5458;SDS011;2752;49.992;8.422;2022-07-06T08:38:20;4.27;;;2.07;;
5458;SDS011;2752;49.992;8.422;2022-07-06T08:40:48;6.57;;;2.07;;
5458;SDS011;2752;49.992;8.422;2022-07-06T08:43:17;3.83;;;2.17;;
5458;SDS011;2752;49.992;8.422;2022-07-06T08:45:44;5.53;;;3.10;;
5458;SDS011;2752;49.992;8.422;2022-07-06T08:48:11;6.50;;;2.20;;
5458;SDS011;2752;49.992;8.422;2022-07-06T08:50:39;6.23;;;2.23;;
5458;SDS011;2752;49.992;8.422;2022-07-06T08:53:06;7.40;;;2.57;;
5458;SDS011;2752;49.992;8.422;2022-07-06T08:55:33;5.47;;;2.37;;
5458;SDS011;2752;49.992;8.422;2022-07-06T08:58:01;3.10;;;1.57;;
5458;SDS011;2752;49.992;8.422;2022-07-06T09:00:31;5.93;;;2.40;;
5458;SDS011;2752;49.992;8.422;2022-07-06T09:02:59;6.70;;;2.20;;
5458;SDS011;2752;49.992;8.422;2022-07-06T09:05:26;7.13;;;1.83;;
5458;SDS011;2752;49.992;8.422;2022-07-06T09:07:55;8.60;;;1.70;;
5458;SDS011;2752;49.992;8.422;2022-07-06T09:10:22;2.53;;;1.40;;
5458;SDS011;2752;49.992;8.422;2022-07-06T09:12:49;4.00;;;2.07;;
5458;SDS011;2752;49.992;8.422;2022-07-06T09:15:17;5.20;;;2.10;;
5458;SDS011;2752;49.992;8.422;2022-07-06T09:17:45;4.63;;;2.00;;
5458;SDS011;2752;49.992;8.422;2022-07-06T09:20:12;9.23;;;1.50;;
5458;SDS011;2752;49.992;8.422;2022-07-06T09:22:40;4.03;;;1.60;;
5458;SDS011;2752;49.992;8.422;2022-07-06T09:25:08;7.40;;;1.93;;
5458;SDS011;2752;49.992;8.422;2022-07-06T09:27:38;1.77;;;1.33;;
5458;SDS011;2752;49.992;8.422;2022-07-06T09:30:06;8.40;;;1.70;;
5458;SDS011;2752;49.992;8.422;2022-07-06T09:32:37;8.00;;;2.03;;
5458;SDS011;2752;49.992;8.422;2022-07-06T09:35:06;4.27;;;1.90;;
5458;SDS011;2752;49.992;8.422;2022-07-06T09:37:33;4.73;;;2.13;;
5458;SDS011;2752;49.992;8.422;2022-07-06T09:40:00;3.27;;;1.83;;
5458;SDS011;2752;49.992;8.422;2022-07-06T09:42:27;5.70;;;2.00;;
5458;SDS011;2752;49.992;8.422;2022-07-06T09:44:55;12.80;;;2.20;;
5458;SDS011;2752;49.992;8.422;2022-07-06T09:47:22;3.90;;;1.63;;
5458;SDS011;2752;49.992;8.422;2022-07-06T09:49:49;3.50;;;1.80;;
5458;SDS011;2752;49.992;8.422;2022-07-06T09:52:17;3.70;;;1.80;;
5458;SDS011;2752;49.992;8.422;2022-07-06T09:54:48;4.47;;;1.70;;
5458;SDS011;2752;49.992;8.422;2022-07-06T09:57:15;3.23;;;1.73;;
5458;SDS011;2752;49.992;8.422;2022-07-06T09:59:42;5.37;;;1.77;;
5458;SDS011;2752;49.992;8.422;2022-07-06T10:02:16;6.03;;;1.77;;
5458;SDS011;2752;49.992;8.422;2022-07-06T10:04:44;2.30;;;1.50;;
5458;SDS011;2752;49.992;8.422;2022-07-06T10:07:12;2.97;;;1.70;;
5458;SDS011;2752;49.992;8.422;2022-07-06T10:09:41;6.20;;;1.83;;
5458;SDS011;2752;49.992;8.422;2022-07-06T10:12:09;5.70;;;2.00;;
5458;SDS011;2752;49.992;8.422;2022-07-06T10:14:39;6.67;;;2.50;;
5458;SDS011;2752;49.992;8.422;2022-07-06T10:17:07;4.50;;;1.90;;
5458;SDS011;2752;49.992;8.422;2022-07-06T10:19:34;10.60;;;2.13;;
5458;SDS011;2752;49.992;8.422;2022-07-06T10:22:02;4.40;;;2.30;;
5458;SDS011;2752;49.992;8.422;2022-07-06T10:24:29;10.00;;;2.57;;
5458;SDS011;2752;49.992;8.422;2022-07-06T10:27:00;4.53;;;2.20;;
5458;SDS011;2752;49.992;8.422;2022-07-06T10:29:27;4.93;;;2.27;;
5458;SDS011;2752;49.992;8.422;2022-07-06T10:31:55;3.53;;;1.80;;
5458;SDS011;2752;49.992;8.422;2022-07-06T10:34:22;5.83;;;2.23;;
5458;SDS011;2752;49.992;8.422;2022-07-06T10:36:49;3.10;;;2.10;;
5458;SDS011;2752;49.992;8.422;2022-07-06T10:39:16;4.77;;;2.10;;
5458;SDS011;2752;49.992;8.422;2022-07-06T10:44:58;2.30;;;1.83;;
5458;SDS011;2752;49.992;8.422;2022-07-06T10:47:26;3.03;;;1.90;;
5458;SDS011;2752;49.992;8.422;2022-07-06T10:49:54;2.73;;;1.77;;
5458;SDS011;2752;49.992;8.422;2022-07-06T10:52:34;2.50;;;2.07;;
5458;SDS011;2752;49.992;8.422;2022-07-06T10:55:24;10.03;;;2.17;;
5458;SDS011;2752;49.992;8.422;2022-07-06T10:57:54;2.23;;;2.03;;
5458;SDS011;2752;49.992;8.422;2022-07-06T11:00:22;4.63;;;2.20;;
5458;SDS011;2752;49.992;8.422;2022-07-06T11:02:49;8.23;;;2.07;;
5458;SDS011;2752;49.992;8.422;2022-07-06T11:08:00;2.70;;;1.73;;
5458;SDS011;2752;49.992;8.422;2022-07-06T11:10:27;5.87;;;2.43;;
5458;SDS011;2752;49.992;8.422;2022-07-06T11:12:58;3.10;;;2.10;;
5458;SDS011;2752;49.992;8.422;2022-07-06T11:18:11;4.20;;;2.10;;
5458;SDS011;2752;49.992;8.422;2022-07-06T11:20:38;3.37;;;2.30;;
5458;SDS011;2752;49.992;8.422;2022-07-06T11:23:06;4.70;;;2.10;;
5458;SDS011;2752;49.992;8.422;2022-07-06T11:25:33;2.60;;;1.60;;
5458;SDS011;2752;49.992;8.422;2022-07-06T11:28:00;2.93;;;2.07;;
5458;SDS011;2752;49.992;8.422;2022-07-06T11:30:27;2.90;;;1.70;;
5458;SDS011;2752;49.992;8.422;2022-07-06T11:32:54;3.27;;;1.50;;
5458;SDS011;2752;49.992;8.422;2022-07-06T11:35:22;9.67;;;1.70;;
5458;SDS011;2752;49.992;8.422;2022-07-06T11:37:49;3.87;;;1.67;;
5458;SDS011;2752;49.992;8.422;2022-07-06T11:40:17;1.77;;;1.30;;
5458;SDS011;2752;49.992;8.422;2022-07-06T11:42:52;9.10;;;1.80;;
5458;SDS011;2752;49.992;8.422;2022-07-06T11:45:25;3.23;;;1.73;;
5458;SDS011;2752;49.992;8.422;2022-07-06T11:48:07;4.50;;;1.57;;
5458;SDS011;2752;49.992;8.422;2022-07-06T11:50:37;3.93;;;1.80;;
5458;SDS011;2752;49.992;8.422;2022-07-06T11:53:04;6.40;;;1.70;;
5458;SDS011;2752;49.992;8.422;2022-07-06T11:55:31;4.17;;;1.40;;
5458;SDS011;2752;49.992;8.422;2022-07-06T11:57:58;4.00;;;1.43;;
5458;SDS011;2752;49.992;8.422;2022-07-06T12:00:27;5.50;;;1.73;;
5458;SDS011;2752;49.992;8.422;2022-07-06T12:03:01;5.97;;;1.53;;
5458;SDS011;2752;49.992;8.422;2022-07-06T12:05:28;6.90;;;1.73;;
5458;SDS011;2752;49.992;8.422;2022-07-06T12:08:04;5.33;;;1.97;;
5458;SDS011;2752;49.992;8.422;2022-07-06T12:10:32;2.53;;;1.50;;
5458;SDS011;2752;49.992;8.422;2022-07-06T12:13:03;4.37;;;1.37;;
5458;SDS011;2752;49.992;8.422;2022-07-06T12:15:30;6.03;;;1.73;;
5458;SDS011;2752;49.992;8.422;2022-07-06T12:17:57;4.77;;;1.17;;
5458;SDS011;2752;49.992;8.422;2022-07-06T12:20:24;4.30;;;1.97;;
5458;SDS011;2752;49.992;8.422;2022-07-06T12:23:00;5.70;;;1.67;;
5458;SDS011;2752;49.992;8.422;2022-07-06T12:25:32;2.80;;;1.50;;
5458;SDS011;2752;49.992;8.422;2022-07-06T12:27:59;2.37;;;1.50;;
5458;SDS011;2752;49.992;8.422;2022-07-06T12:30:26;2.60;;;1.37;;
5458;SDS011;2752;49.992;8.422;2022-07-06T12:35:35;2.50;;;1.30;;
5458;SDS011;2752;49.992;8.422;2022-07-06T12:38:02;3.80;;;1.93;;
5458;SDS011;2752;49.992;8.422;2022-07-06T12:40:29;2.70;;;1.20;;
5458;SDS011;2752;49.992;8.422;2022-07-06T12:42:58;5.87;;;1.70;;
5458;SDS011;2752;49.992;8.422;2022-07-06T12:45:26;7.30;;;1.30;;
5458;SDS011;2752;49.992;8.422;2022-07-06T12:47:59;5.47;;;1.57;;
5458;SDS011;2752;49.992;8.422;2022-07-06T12:50:32;2.70;;;1.63;;
5458;SDS011;2752;49.992;8.422;2022-07-06T12:52:59;3.63;;;1.40;;
5458;SDS011;2752;49.992;8.422;2022-07-06T12:55:26;5.87;;;1.53;;
5458;SDS011;2752;49.992;8.422;2022-07-06T12:57:54;2.90;;;1.50;;
5458;SDS011;2752;49.992;8.422;2022-07-06T13:00:23;6.30;;;1.57;;
5458;SDS011;2752;49.992;8.422;2022-07-06T13:02:51;6.80;;;1.47;;
5458;SDS011;2752;49.992;8.422;2022-07-06T13:05:24;4.40;;;1.73;;
5458;SDS011;2752;49.992;8.422;2022-07-06T13:07:53;3.30;;;1.33;;
5458;SDS011;2752;49.992;8.422;2022-07-06T13:10:20;2.53;;;1.60;;
5458;SDS011;2752;49.992;8.422;2022-07-06T13:12:48;2.90;;;1.57;;
5458;SDS011;2752;49.992;8.422;2022-07-06T13:15:15;7.10;;;1.87;;
5458;SDS011;2752;49.992;8.422;2022-07-06T13:17:44;4.10;;;2.00;;
5458;SDS011;2752;49.992;8.422;2022-07-06T13:20:11;1.57;;;1.30;;
5458;SDS011;2752;49.992;8.422;2022-07-06T13:22:39;4.30;;;1.70;;
5458;SDS011;2752;49.992;8.422;2022-07-06T13:25:06;2.73;;;1.60;;
5458;SDS011;2752;49.992;8.422;2022-07-06T13:27:33;2.70;;;1.57;;
5458;SDS011;2752;49.992;8.422;2022-07-06T13:30:01;3.30;;;1.87;;
5458;SDS011;2752;49.992;8.422;2022-07-06T13:32:28;4.53;;;1.67;;
5458;SDS011;2752;49.992;8.422;2022-07-06T13:34:56;2.37;;;1.57;;
5458;SDS011;2752;49.992;8.422;2022-07-06T13:37:23;6.50;;;1.80;;
5458;SDS011;2752;49.992;8.422;2022-07-06T13:39:50;4.00;;;2.27;;
5458;SDS011;2752;49.992;8.422;2022-07-06T13:42:17;6.00;;;1.90;;
5458;SDS011;2752;49.992;8.422;2022-07-06T13:44:44;3.30;;;2.00;;
5458;SDS011;2752;49.992;8.422;2022-07-06T13:47:12;8.33;;;1.53;;
5458;SDS011;2752;49.992;8.422;2022-07-06T13:49:39;5.03;;;1.70;;
5458;SDS011;2752;49.992;8.422;2022-07-06T13:52:09;4.00;;;1.57;;
5458;SDS011;2752;49.992;8.422;2022-07-06T13:54:36;3.00;;;1.60;;
5458;SDS011;2752;49.992;8.422;2022-07-06T13:57:03;3.03;;;1.37;;
5458;SDS011;2752;49.992;8.422;2022-07-06T13:59:31;13.73;;;1.93;;
5458;SDS011;2752;49.992;8.422;2022-07-06T14:01:58;4.30;;;1.23;;
5458;SDS011;2752;49.992;8.422;2022-07-06T14:04:26;3.40;;;1.30;;
5458;SDS011;2752;49.992;8.422;2022-07-06T14:06:53;2.80;;;1.47;;
5458;SDS011;2752;49.992;8.422;2022-07-06T14:09:22;3.20;;;1.43;;
5458;SDS011;2752;49.992;8.422;2022-07-06T14:11:49;2.63;;;1.10;;
5458;SDS011;2752;49.992;8.422;2022-07-06T14:14:16;5.17;;;1.77;;
5458;SDS011;2752;49.992;8.422;2022-07-06T14:16:43;3.33;;;1.50;;
5458;SDS011;2752;49.992;8.422;2022-07-06T14:19:10;2.70;;;1.90;;
5458;SDS011;2752;49.992;8.422;2022-07-06T14:21:37;3.40;;;1.40;;
5458;SDS011;2752;49.992;8.422;2022-07-06T14:24:04;3.13;;;1.30;;
5458;SDS011;2752;49.992;8.422;2022-07-06T14:26:33;6.43;;;1.90;;
5458;SDS011;2752;49.992;8.422;2022-07-06T14:29:00;6.73;;;1.60;;
5458;SDS011;2752;49.992;8.422;2022-07-06T14:31:27;12.03;;;1.60;;
5458;SDS011;2752;49.992;8.422;2022-07-06T14:33:54;3.17;;;1.60;;
5458;SDS011;2752;49.992;8.422;2022-07-06T14:36:21;6.30;;;1.50;;
5458;SDS011;2752;49.992;8.422;2022-07-06T14:38:48;4.50;;;1.63;;
5458;SDS011;2752;49.992;8.422;2022-07-06T14:41:15;6.03;;;1.70;;
5458;SDS011;2752;49.992;8.422;2022-07-06T14:43:44;2.60;;;1.50;;
5458;SDS011;2752;49.992;8.422;2022-07-06T14:46:11;1.83;;;1.20;;
5458;SDS011;2752;49.992;8.422;2022-07-06T14:48:38;2.07;;;1.40;;
5458;SDS011;2752;49.992;8.422;2022-07-06T14:51:05;3.83;;;1.63;;
5458;SDS011;2752;49.992;8.422;2022-07-06T14:53:32;3.47;;;1.27;;
5458;SDS011;2752;49.992;8.422;2022-07-06T14:55:58;1.47;;;1.30;;
5458;SDS011;2752;49.992;8.422;2022-07-06T14:58:26;5.33;;;1.60;;
5458;SDS011;2752;49.992;8.422;2022-07-06T15:00:54;2.00;;;1.40;;
5458;SDS011;2752;49.992;8.422;2022-07-06T15:03:21;3.40;;;1.10;;
5458;SDS011;2752;49.992;8.422;2022-07-06T15:05:48;2.00;;;1.20;;
5458;SDS011;2752;49.992;8.422;2022-07-06T15:08:15;6.83;;;1.57;;
5458;SDS011;2752;49.992;8.422;2022-07-06T15:10:43;7.40;;;1.83;;
5458;SDS011;2752;49.992;8.422;2022-07-06T15:13:10;3.80;;;2.03;;
5458;SDS011;2752;49.992;8.422;2022-07-06T15:15:37;1.80;;;1.60;;
5458;SDS011;2752;49.992;8.422;2022-07-06T15:18:06;4.53;;;1.67;;
5458;SDS011;2752;49.992;8.422;2022-07-06T15:20:33;6.60;;;2.17;;
5458;SDS011;2752;49.992;8.422;2022-07-06T15:23:00;2.90;;;1.93;;
5458;SDS011;2752;49.992;8.422;2022-07-06T15:25:27;8.93;;;2.37;;
5458;SDS011;2752;49.992;8.422;2022-07-06T15:27:54;13.30;;;3.63;;
5458;SDS011;2752;49.992;8.422;2022-07-06T15:30:21;6.43;;;2.30;;